Time;durP1;ratioP1;P1;durP2;ratioP2;P2;SDS_P1;SDS_P2;PMS_P1;PMS_P2;Temp;Humidity;BMP_temperature;BMP_pressure;BME280_temperature;BME280_humidity;BME280_pressure;Samples;Min_cycle;Max_cycle;Signal;HPM_P1;HPM_P2
2023/07/14 00:02:00;;;;;;;4.43;3.13;;;;;;;16.09;61.23;101184.59;7397012;19;20086;-68
2023/07/14 00:04:31;;;;;;;5.00;3.20;;;;;;;16.05;61.33;101182.97;7397170;19;20027;-67
2023/07/14 00:07:00;;;;;;;6.15;3.67;;;;;;;16.03;61.27;101186.59;7400056;19;20091;-67
2023/07/14 00:09:33;;;;;;;5.10;4.35;;;;;;;15.99;61.68;101192.94;7399438;19;20082;-67
2023/07/14 00:12:03;;;;;;;4.00;3.60;;;;;;;15.95;61.60;101200.13;7399239;19;20485;-68
2023/07/14 00:14:31;;;;;;;5.95;4.22;;;;;;;15.91;61.66;101191.44;7396827;19;20090;-68
2023/07/14 00:17:14;;;;;;;5.10;3.42;;;;;;;15.88;62.02;101182.75;7397742;19;20010;-68
2023/07/14 00:19:44;;;;;;;4.32;3.25;;;;;;;15.84;62.04;101189.09;7399621;19;20011;-68
2023/07/14 00:22:14;;;;;;;6.32;3.88;;;;;;;15.78;62.29;101193.66;7397141;19;20018;-68
2023/07/14 00:24:45;;;;;;;7.32;3.67;;;;;;;15.74;62.61;101204.38;7397032;19;20014;-68
2023/07/14 00:27:20;;;;;;;4.47;3.78;;;;;;;15.70;62.68;101195.69;7398639;19;20090;-67
2023/07/14 00:29:49;;;;;;;6.65;3.05;;;;;;;15.68;62.78;101196.66;7398446;19;20014;-66
2023/07/14 00:32:20;;;;;;;4.43;3.60;;;;;;;15.66;62.74;101203.78;7398293;19;20491;-67
2023/07/14 00:34:50;;;;;;;4.45;3.25;;;;;;;15.62;63.10;101198.63;7396826;19;20022;-67
2023/07/14 00:37:18;;;;;;;4.85;3.05;;;;;;;15.60;63.15;101199.59;7398580;19;20025;-68
2023/07/14 00:39:49;;;;;;;4.47;3.78;;;;;;;15.58;63.20;101206.69;7398462;19;20079;-68
2023/07/14 00:42:18;;;;;;;5.30;2.90;;;;;;;15.56;63.22;101200.63;7396676;19;20086;-67
2023/07/14 00:44:48;;;;;;;3.05;2.75;;;;;;;15.55;63.52;101210.31;7396531;19;20038;-68
2023/07/14 00:47:22;;;;;;;5.57;2.70;;;;;;;15.54;63.61;101205.94;7400097;19;20421;-68
2023/07/14 00:49:53;;;;;;;2.97;2.65;;;;;;;15.53;63.46;101209.53;7399059;19;20034;-69
2023/07/14 00:52:27;;;;;;;5.20;2.60;;;;;;;15.51;63.92;101206.06;7398375;19;20533;-67
2023/07/14 00:55:00;;;;;;;4.05;2.75;;;;;;;15.48;64.10;101212.31;7396083;19;20084;-68
2023/07/14 00:57:30;;;;;;;3.42;2.55;;;;;;;15.43;64.00;101213.38;7398426;19;20015;-68
2023/07/14 01:00:05;;;;;;;4.35;2.70;;;;;;;15.39;64.22;101212.66;7397748;19;20019;-67
2023/07/14 01:02:35;;;;;;;3.60;2.60;;;;;;;15.36;64.38;101212.75;7396152;19;20018;-68
2023/07/14 01:05:09;;;;;;;3.83;2.42;;;;;;;15.33;64.46;101212.84;7395535;19;20082;-68
2023/07/14 01:07:41;;;;;;;3.20;2.05;;;;;;;15.30;64.80;101212.94;7398100;19;20018;-67
2023/07/14 01:10:15;;;;;;;5.03;2.97;;;;;;;15.27;64.79;101213.91;7397179;19;20027;-68
2023/07/14 01:12:50;;;;;;;2.65;2.33;;;;;;;15.23;65.16;101212.31;7397947;19;20359;-66
2023/07/14 01:15:18;;;;;;;5.38;3.05;;;;;;;15.18;65.07;101208.94;7397404;19;20018;-66
2023/07/14 01:17:50;;;;;;;3.78;2.90;;;;;;;15.18;65.35;101208.06;7396075;19;20014;-65
2023/07/14 01:20:20;;;;;;;4.97;2.80;;;;;;;15.14;65.35;101210.84;7396930;19;20501;-66
2023/07/14 01:22:59;;;;;;;4.15;2.55;;;;;;;15.11;65.42;101210.06;7397580;19;20026;-66
2023/07/14 01:25:44;;;;;;;3.38;2.50;;;;;;;15.08;65.70;101207.53;7394886;19;20028;-67
2023/07/14 01:28:19;;;;;;;3.50;2.63;;;;;;;15.05;65.75;101208.50;7397258;19;20082;-67
2023/07/14 01:30:48;;;;;;;3.40;2.63;;;;;;;15.03;65.70;101204.19;7394565;19;20082;-67
2023/07/14 01:33:19;;;;;;;4.35;2.75;;;;;;;15.03;65.81;101205.03;7396311;19;20074;-67
2023/07/14 01:35:53;;;;;;;3.60;2.92;;;;;;;15.02;65.89;101195.38;7397065;19;20103;-66
2023/07/14 01:38:22;;;;;;;6.97;2.80;;;;;;;15.00;65.96;101197.22;7396249;19;20011;-66
2023/07/14 01:40:51;;;;;;;5.68;2.95;;;;;;;14.99;66.25;101212.19;7395458;19;20377;-67
2023/07/14 01:43:23;;;;;;;4.68;2.70;;;;;;;14.97;66.28;101211.41;7395866;19;20053;-66
2023/07/14 01:45:56;;;;;;;3.33;2.83;;;;;;;14.95;66.27;101204.41;7395945;19;20160;-66
2023/07/14 01:48:29;;;;;;;5.05;3.00;;;;;;;14.93;66.40;101203.63;7396679;19;20029;-66
2023/07/14 01:51:01;;;;;;;4.55;2.85;;;;;;;14.91;66.29;101206.31;7396545;19;20025;-65
2023/07/14 01:53:37;;;;;;;3.35;3.03;;;;;;;14.91;66.70;101205.44;7395637;19;20042;-66
2023/07/14 01:56:09;;;;;;;4.20;2.50;;;;;;;14.91;66.64;101208.06;7396453;19;20018;-66
2023/07/14 01:58:51;;;;;;;3.80;3.38;;;;;;;14.91;66.84;101216.00;7395980;19;20358;-67
2023/07/14 02:01:22;;;;;;;3.85;3.33;;;;;;;14.90;66.91;101216.91;7395616;19;20028;-67
2023/07/14 02:03:55;;;;;;;4.35;2.80;;;;;;;14.89;67.02;101217.84;7392691;19;20031;-68
2023/07/14 02:06:25;;;;;;;7.05;3.10;;;;;;;14.87;66.95;101219.66;7394557;19;20085;-68
2023/07/14 02:08:54;;;;;;;4.22;3.22;;;;;;;14.85;67.18;101218.84;7393902;19;20031;-66
2023/07/14 02:11:24;;;;;;;5.00;2.97;;;;;;;14.83;67.16;101222.38;7395803;19;20022;-66
2023/07/14 02:13:57;;;;;;;4.78;3.85;;;;;;;14.80;67.32;101219.00;7394217;19;20022;-66
2023/07/14 02:16:28;;;;;;;4.32;3.10;;;;;;;14.77;67.39;101213.81;7397408;19;20066;-66
2023/07/14 02:18:58;;;;;;;4.43;3.10;;;;;;;14.79;67.43;101214.63;7396973;19;20010;-66
2023/07/14 02:21:29;;;;;;;4.15;3.50;;;;;;;14.79;67.76;101223.41;7396294;19;20089;-67
2023/07/14 02:23:59;;;;;;;5.60;3.42;;;;;;;14.80;67.68;101219.00;7394622;19;20031;-65
2023/07/14 02:26:33;;;;;;;5.72;3.17;;;;;;;14.82;67.72;101222.44;7395126;19;20018;-66
2023/07/14 02:29:04;;;;;;;5.90;4.00;;;;;;;14.83;67.80;101225.03;7393813;19;20460;-65
2023/07/14 02:31:38;;;;;;;4.07;3.30;;;;;;;14.85;67.80;101232.03;7392953;19;20582;-66
2023/07/14 02:34:08;;;;;;;5.13;3.42;;;;;;;14.85;67.66;101226.75;7393482;19;20018;-66
2023/07/14 02:36:44;;;;;;;4.60;3.58;;;;;;;14.85;67.79;101237.31;7394892;19;20015;-66
2023/07/14 02:39:13;;;;;;;6.05;3.22;;;;;;;14.83;67.96;101238.22;7394497;19;20011;-66
2023/07/14 02:41:45;;;;;;;4.97;3.92;;;;;;;14.82;67.98;101233.88;7393494;19;20019;-66
2023/07/14 02:44:19;;;;;;;4.22;3.70;;;;;;;14.81;68.09;101232.16;7393616;19;20027;-66
2023/07/14 02:46:53;;;;;;;5.07;3.17;;;;;;;14.79;68.31;101230.47;7393299;19;20018;-67
2023/07/14 02:49:22;;;;;;;4.28;3.22;;;;;;;14.79;67.94;101225.19;7394210;19;20541;-67
2023/07/14 02:51:50;;;;;;;5.50;3.92;;;;;;;14.78;68.39;101232.22;7394124;19;20526;-67
2023/07/14 02:54:19;;;;;;;4.50;3.67;;;;;;;14.77;68.40;101230.53;7392393;19;20078;-67
2023/07/14 02:56:47;;;;;;;5.47;3.90;;;;;;;14.78;68.49;101232.22;7392467;19;20111;-68
2023/07/14 02:59:19;;;;;;;5.43;3.88;;;;;;;14.76;68.60;101231.44;7392719;19;20082;-67
2023/07/14 03:01:47;;;;;;;5.25;3.60;;;;;;;14.78;68.66;101240.16;7392015;19;20095;-66
2023/07/14 03:04:16;;;;;;;4.40;3.80;;;;;;;14.78;68.67;101240.16;7392812;19;20018;-66
2023/07/14 03:06:44;;;;;;;4.60;3.47;;;;;;;14.78;68.65;101244.59;7393922;19;20031;-67
2023/07/14 03:09:13;;;;;;;4.10;3.33;;;;;;;14.77;68.94;101238.44;7393691;19;20095;-65
2023/07/14 03:11:41;;;;;;;4.40;3.67;;;;;;;14.76;68.65;101234.06;7393771;19;20015;-67
2023/07/14 03:14:10;;;;;;;4.35;3.85;;;;;;;14.77;69.01;101246.38;7391818;19;20086;-67
2023/07/14 03:16:41;;;;;;;3.88;3.42;;;;;;;14.78;68.89;101241.94;7398900;19;20029;-67
2023/07/14 03:19:09;;;;;;;4.10;3.50;;;;;;;14.77;68.98;101235.81;7398239;19;20066;-66
2023/07/14 03:21:38;;;;;;;5.22;3.67;;;;;;;14.78;68.92;101234.03;7400194;19;20019;-66
2023/07/14 03:24:07;;;;;;;5.53;3.58;;;;;;;14.78;68.83;101242.78;7398272;19;20015;-66
2023/07/14 03:26:36;;;;;;;4.63;4.18;;;;;;;14.77;69.10;101235.81;7398268;19;20018;-67
2023/07/14 03:29:04;;;;;;;5.13;4.20;;;;;;;14.80;69.17;101242.78;7398070;19;20023;-66
2023/07/14 03:31:32;;;;;;;4.28;3.88;;;;;;;14.81;69.09;101245.34;7398054;19;20018;-66
2023/07/14 03:34:03;;;;;;;5.55;3.50;;;;;;;14.82;69.16;101243.56;7399080;19;20025;-67
2023/07/14 03:36:32;;;;;;;5.53;3.63;;;;;;;14.82;69.29;101243.56;7400882;19;20081;-67
2023/07/14 03:39:24;;;;;;;6.75;3.55;;;;;;;14.82;69.37;101235.66;7400720;19;20082;-67
2023/07/14 03:41:53;;;;;;;5.22;4.28;;;;;;;14.83;69.18;101237.38;7397609;19;20039;-66
2023/07/14 03:44:29;;;;;;;3.80;3.10;;;;;;;14.82;69.24;101238.28;7397833;19;20463;-67
2023/07/14 03:46:57;;;;;;;3.92;3.63;;;;;;;14.82;69.37;101238.28;7400393;19;20163;-66
2023/07/14 03:49:28;;;;;;;13.43;3.88;;;;;;;14.83;69.31;101240.03;7399979;19;20025;-67
2023/07/14 03:51:57;;;;;;;6.95;4.38;;;;;;;14.83;69.43;101243.50;7400698;19;20081;-67
2023/07/14 03:54:25;;;;;;;4.78;3.63;;;;;;;14.84;69.30;101249.69;7396726;19;20536;-67
2023/07/14 03:56:54;;;;;;;4.90;4.10;;;;;;;14.85;69.62;101242.59;7397092;19;20019;-66
2023/07/14 03:59:23;;;;;;;4.65;4.25;;;;;;;14.83;69.63;101253.22;7398971;19;20046;-65
2023/07/14 04:01:51;;;;;;;5.63;4.05;;;;;;;14.83;69.42;101256.72;7398691;19;20018;-67
2023/07/14 04:04:22;;;;;;;5.10;4.55;;;;;;;14.85;69.80;101254.06;7396622;19;20086;-66
2023/07/14 04:06:53;;;;;;;6.07;4.45;;;;;;;14.85;69.70;101253.16;7397002;19;20010;-66
2023/07/14 04:09:21;;;;;;;6.13;4.25;;;;;;;14.85;69.81;101258.47;7397586;19;20018;-67
2023/07/14 04:11:50;;;;;;;5.32;4.63;;;;;;;14.82;69.62;101255.03;7399376;19;20033;-67
2023/07/14 04:14:18;;;;;;;7.25;4.28;;;;;;;14.82;69.90;101259.41;7397295;19;20021;-65
2023/07/14 04:16:47;;;;;;;5.00;4.45;;;;;;;14.79;70.10;101263.03;7398699;19;20374;-66
2023/07/14 04:19:21;;;;;;;6.00;4.40;;;;;;;14.78;70.15;101249.88;7395295;19;20078;-66
2023/07/14 04:21:52;;;;;;;5.30;4.60;;;;;;;14.78;70.23;101266.56;7396659;19;20021;-66
2023/07/14 04:24:21;;;;;;;5.88;4.70;;;;;;;14.75;70.46;101266.69;7396304;19;20082;-67
2023/07/14 04:26:49;;;;;;;8.88;4.95;;;;;;;14.75;70.54;101266.69;7397408;19;20485;-67
2023/07/14 04:29:17;;;;;;;8.30;4.82;;;;;;;14.72;70.60;101266.78;7398481;19;20021;-66
2023/07/14 04:31:46;;;;;;;6.53;5.15;;;;;;;14.71;70.58;101266.81;7398966;19;20021;-66
2023/07/14 04:34:14;;;;;;;8.90;5.10;;;;;;;14.71;70.70;101267.69;7396901;19;20026;-66
2023/07/14 04:36:44;;;;;;;8.07;5.30;;;;;;;14.71;70.72;101272.09;7398360;19;20015;-66
2023/07/14 04:39:15;;;;;;;5.85;4.78;;;;;;;14.72;70.69;101265.91;7398411;19;20078;-66
2023/07/14 04:41:44;;;;;;;10.90;5.90;;;;;;;14.72;70.96;101274.72;7398795;19;20017;-69
2023/07/14 04:44:15;;;;;;;11.48;5.18;;;;;;;14.74;70.79;101272.00;7396690;19;20020;-68
2023/07/14 04:46:45;;;;;;;5.90;4.70;;;;;;;14.76;70.88;101273.69;7396358;19;20014;-67
2023/07/14 04:49:15;;;;;;;7.07;5.43;;;;;;;14.78;71.05;101266.56;7396503;19;20018;-67
2023/07/14 04:51:44;;;;;;;5.35;4.85;;;;;;;14.83;70.94;101274.38;7397146;19;20405;-67
2023/07/14 04:54:15;;;;;;;8.13;5.22;;;;;;;14.86;71.20;101265.47;7396350;19;20019;-67
2023/07/14 04:56:44;;;;;;;8.70;5.10;;;;;;;14.89;70.86;101265.41;7397119;19;20365;-68
2023/07/14 04:59:13;;;;;;;7.18;5.88;;;;;;;14.92;71.04;101260.00;7397132;19;20027;-68
2023/07/14 05:01:41;;;;;;;7.88;5.05;;;;;;;14.96;71.06;101264.28;7396545;19;20038;-68
2023/07/14 05:04:10;;;;;;;8.23;5.00;;;;;;;15.02;71.15;101271.16;7395023;19;20023;-67
2023/07/14 05:06:39;;;;;;;7.10;5.30;;;;;;;15.05;71.00;101266.63;7396488;19;20021;-67
2023/07/14 05:09:07;;;;;;;8.60;5.57;;;;;;;15.12;71.13;101267.28;7396803;19;20023;-67
2023/07/14 05:11:38;;;;;;;8.93;6.07;;;;;;;15.18;71.01;101268.84;7393942;19;20466;-68
2023/07/14 05:14:07;;;;;;;8.18;5.05;;;;;;;15.24;70.78;101266.00;7394513;19;20015;-67
2023/07/14 05:16:36;;;;;;;9.32;6.18;;;;;;;15.29;70.58;101272.00;7399404;19;20090;-68
2023/07/14 05:19:04;;;;;;;9.90;5.05;;;;;;;15.35;70.67;101271.81;7400193;19;20018;-67
2023/07/14 05:21:33;;;;;;;8.70;6.00;;;;;;;15.41;70.47;101268.97;7394793;19;20011;-67
2023/07/14 05:24:01;;;;;;;5.90;4.57;;;;;;;15.48;70.66;101275.78;7394677;19;20020;-66
2023/07/14 05:26:30;;;;;;;6.53;4.57;;;;;;;15.55;70.32;101267.66;7394656;19;20015;-67
2023/07/14 05:29:02;;;;;;;7.43;5.13;;;;;;;15.62;70.15;101267.38;7396641;19;20098;-67
2023/07/14 05:31:32;;;;;;;8.75;5.03;;;;;;;15.71;70.03;101267.97;7396201;19;20376;-68
2023/07/14 05:34:00;;;;;;;5.95;4.13;;;;;;;15.79;70.03;101268.56;7394473;19;20022;-68
2023/07/14 05:36:29;;;;;;;4.88;4.38;;;;;;;15.86;69.57;101274.53;7395935;19;20086;-68
2023/07/14 05:38:57;;;;;;;7.30;4.88;;;;;;;15.93;69.51;101274.25;7393998;19;20011;-67
2023/07/14 05:41:26;;;;;;;6.32;4.78;;;;;;;16.01;69.71;101265.19;7395545;19;20541;-68
2023/07/14 05:43:54;;;;;;;9.60;4.47;;;;;;;16.08;69.31;101266.69;7393609;19;20019;-68
2023/07/14 05:46:25;;;;;;;4.55;4.00;;;;;;;16.18;69.36;101275.19;7396314;19;20078;-68
2023/07/14 05:48:53;;;;;;;10.75;5.68;;;;;;;16.24;69.02;101270.50;7395882;19;20070;-68
2023/07/14 05:51:22;;;;;;;7.07;4.53;;;;;;;16.33;68.87;101279.00;7395771;19;20082;-68
2023/07/14 05:53:51;;;;;;;6.90;3.80;;;;;;;16.38;68.45;101275.28;7393712;19;20025;-68
2023/07/14 05:56:20;;;;;;;7.05;4.25;;;;;;;16.45;68.57;101275.91;7394527;19;20481;-68
2023/07/14 05:58:48;;;;;;;5.78;4.07;;;;;;;16.52;68.43;101273.91;7394974;19;20014;-68
2023/07/14 06:01:17;;;;;;;4.95;4.13;;;;;;;16.57;68.14;101269.31;7394905;19;20022;-68
2023/07/14 06:03:48;;;;;;;6.40;4.20;;;;;;;16.64;68.28;101267.25;7393464;19;20019;-68
2023/07/14 06:06:17;;;;;;;9.23;4.15;;;;;;;16.70;68.24;101261.72;7391924;19;20545;-68
2023/07/14 06:08:45;;;;;;;4.80;3.88;;;;;;;16.77;67.71;101268.53;7394032;19;20098;-67
2023/07/14 06:11:13;;;;;;;7.72;4.20;;;;;;;16.85;67.66;101265.56;7394080;19;20482;-68
2023/07/14 06:13:42;;;;;;;6.03;4.55;;;;;;;16.92;67.63;101267.94;7393881;19;20018;-68
2023/07/14 06:16:10;;;;;;;5.95;3.60;;;;;;;16.98;67.55;101269.47;7395054;19;20086;-68
2023/07/14 06:18:39;;;;;;;10.57;7.93;;;;;;;17.03;67.14;101267.50;7394119;19;20017;-68
2023/07/14 06:21:11;;;;;;;10.05;7.10;;;;;;;17.10;67.25;101276.94;7395470;19;20025;-68
2023/07/14 06:23:39;;;;;;;7.85;5.70;;;;;;;17.18;67.17;101267.81;7393122;19;20361;-68
2023/07/14 06:26:07;;;;;;;6.22;3.80;;;;;;;17.24;66.84;101267.56;7394768;19;20082;-68
2023/07/14 06:28:36;;;;;;;6.43;3.40;;;;;;;17.30;66.62;101269.06;7395212;19;20015;-67
2023/07/14 06:31:07;;;;;;;7.00;3.40;;;;;;;17.36;66.60;101261.75;7395463;19;20070;-68
2023/07/14 06:33:36;;;;;;;3.85;2.70;;;;;;;17.43;66.61;101262.34;7393067;19;20380;-68
2023/07/14 06:36:04;;;;;;;5.22;3.20;;;;;;;17.51;66.48;101262.00;7392670;19;20074;-69
2023/07/14 06:38:36;;;;;;;6.78;3.22;;;;;;;17.58;65.95;101260.84;7393914;19;20439;-68
2023/07/14 06:41:07;;;;;;;21.02;14.30;;;;;;;17.66;65.85;101257.84;7394220;19;20018;-68
2023/07/14 06:43:36;;;;;;;10.68;7.22;;;;;;;17.74;65.45;101266.31;7393051;19;20014;-67
2023/07/14 06:46:05;;;;;;;7.43;4.93;;;;;;;17.81;65.20;101262.47;7393810;19;20419;-68
2023/07/14 06:48:33;;;;;;;6.97;4.07;;;;;;;17.88;64.99;101257.75;7393392;19;20594;-68
2023/07/14 06:51:02;;;;;;;8.38;5.10;;;;;;;17.94;64.69;101267.28;7394411;19;20014;-68
2023/07/14 06:53:31;;;;;;;4.72;3.28;;;;;;;18.02;64.27;101254.50;7398456;19;20050;-68
2023/07/14 06:56:02;;;;;;;4.65;3.80;;;;;;;18.11;64.01;101258.53;7399025;19;20018;-70
2023/07/14 06:58:31;;;;;;;2.92;2.47;;;;;;;18.19;63.66;101265.22;7398040;19;20070;-68
2023/07/14 07:00:59;;;;;;;4.90;2.47;;;;;;;18.28;63.34;101256.00;7403730;19;20082;-68
2023/07/14 07:03:28;;;;;;;4.35;2.67;;;;;;;18.35;63.12;101254.78;7397429;19;20015;-67
2023/07/14 07:05:57;;;;;;;3.92;2.65;;;;;;;18.42;63.15;101251.84;7398933;19;20082;-68
2023/07/14 07:08:26;;;;;;;5.60;3.10;;;;;;;18.49;62.61;101253.28;7400495;19;20557;-67
2023/07/14 07:10:55;;;;;;;5.35;2.58;;;;;;;18.56;62.75;101262.66;7400831;19;20025;-68
2023/07/14 07:13:26;;;;;;;4.72;2.72;;;;;;;18.64;62.34;101257.88;7398137;19;20023;-68
2023/07/14 07:15:54;;;;;;;4.75;2.60;;;;;;;18.71;61.53;101261.94;7397664;19;20014;-68
2023/07/14 07:18:28;;;;;;;3.47;2.70;;;;;;;18.76;60.99;101261.72;7397091;19;20086;-69
2023/07/14 07:21:05;;;;;;;4.47;2.78;;;;;;;18.82;61.01;101255.28;7398302;19;20014;-69
2023/07/14 07:23:33;;;;;;;4.78;3.05;;;;;;;18.86;60.58;101260.34;7397741;19;20027;-68
2023/07/14 07:26:02;;;;;;;3.17;2.60;;;;;;;18.91;60.53;101251.34;7399324;19;20025;-68
2023/07/14 07:28:33;;;;;;;3.75;2.33;;;;;;;18.97;60.36;101251.88;7400057;19;20011;-68
2023/07/14 07:31:08;;;;;;;3.65;2.28;;;;;;;19.04;60.08;101249.78;7401027;19;20078;-68
2023/07/14 07:33:37;;;;;;;8.90;3.35;;;;;;;19.11;60.47;101250.34;7397600;19;20350;-68
2023/07/14 07:36:14;;;;;;;7.13;3.08;;;;;;;19.19;59.89;101241.03;7400152;19;20419;-69
2023/07/14 07:38:45;;;;;;;5.05;2.38;;;;;;;19.28;59.49;101241.53;7398011;19;20018;-70
2023/07/14 07:41:15;;;;;;;5.75;2.50;;;;;;;19.36;59.03;101248.19;7397694;19;20015;-67
2023/07/14 07:43:46;;;;;;;3.10;2.00;;;;;;;19.44;58.64;101236.28;7398742;19;20017;-68
2023/07/14 07:46:15;;;;;;;3.80;2.22;;;;;;;19.51;58.04;101235.00;7397127;19;20015;-70
2023/07/14 07:48:45;;;;;;;2.65;1.75;;;;;;;19.56;58.00;101225.00;7399855;19;20045;-68
2023/07/14 07:51:14;;;;;;;5.93;2.00;;;;;;;19.62;57.55;101226.50;7396330;19;20492;-68
2023/07/14 07:53:43;;;;;;;4.30;2.28;;;;;;;19.70;57.14;101230.47;7397828;19;20082;-69
2023/07/14 07:56:12;;;;;;;3.22;2.13;;;;;;;19.77;56.89;101216.84;7397255;19;20025;-69
2023/07/14 07:58:42;;;;;;;3.65;2.42;;;;;;;19.84;56.69;101218.25;7399281;19;20021;-68
2023/07/14 08:01:20;;;;;;;8.18;3.17;;;;;;;19.90;56.30;101215.25;7399104;19;20026;-68
2023/07/14 08:03:51;;;;;;;5.95;2.65;;;;;;;19.97;56.29;101221.97;7396026;19;20066;-68
2023/07/14 08:06:21;;;;;;;4.93;2.20;;;;;;;20.07;55.85;101213.50;7396717;19;20015;-69
2023/07/14 08:08:51;;;;;;;2.53;2.15;;;;;;;20.13;55.62;101208.72;7398530;19;20018;-70
2023/07/14 08:11:19;;;;;;;4.65;2.20;;;;;;;20.19;55.25;101207.50;7396715;19;20022;-68
2023/07/14 08:13:47;;;;;;;3.55;2.17;;;;;;;20.25;55.08;101209.81;7396114;19;20086;-68
2023/07/14 08:16:18;;;;;;;3.60;2.15;;;;;;;20.28;54.83;101207.00;7398410;19;20093;-68
2023/07/14 08:18:47;;;;;;;3.83;1.90;;;;;;;20.33;54.42;101198.75;7399836;19;20086;-68
2023/07/14 08:21:15;;;;;;;2.42;1.63;;;;;;;20.37;53.66;101194.94;7399547;19;20080;-70
2023/07/14 08:23:44;;;;;;;2.78;1.95;;;;;;;20.41;53.14;101204.50;7396466;19;20018;-69
2023/07/14 08:26:13;;;;;;;2.92;2.25;;;;;;;20.46;53.10;101204.25;7398438;19;20018;-68
2023/07/14 08:28:42;;;;;;;4.22;1.88;;;;;;;20.51;52.68;101205.72;7395920;19;20086;-68
2023/07/14 08:31:15;;;;;;;2.58;1.60;;;;;;;20.57;52.52;101196.50;7395525;19;20014;-68
2023/07/14 08:33:47;;;;;;;;;;;;;;;20.62;52.23;101198.91;7395863;19;20078;-68
2023/07/14 08:36:16;;;;;;;6.10;2.17;;;;;;;20.69;52.38;101194.97;7398668;19;19918;-68
2023/07/14 08:38:44;;;;;;;4.88;2.17;;;;;;;20.73;52.45;101196.53;7397763;19;20478;-68
2023/07/14 08:41:23;;;;;;;3.30;1.48;;;;;;;20.81;51.32;101193.41;7398027;19;20018;-68
2023/07/14 08:44:31;;;;;;;4.95;1.88;;;;;;;20.90;50.60;101195.56;7396822;19;20600;-68
2023/07/14 08:47:08;;;;;;;10.05;2.85;;;;;;;20.98;50.37;101193.28;7397671;19;20038;-68
2023/07/14 08:49:44;;;;;;;3.60;1.60;;;;;;;21.06;49.64;101192.00;7398140;19;20021;-68
2023/07/14 08:52:25;;;;;;;2.95;2.08;;;;;;;21.15;49.08;101194.09;7398114;19;20086;-68
2023/07/14 08:55:00;;;;;;;5.28;1.70;;;;;;;21.22;48.14;101192.81;7395440;19;20070;-69
2023/07/14 08:57:30;;;;;;;3.85;2.20;;;;;;;21.30;48.11;101185.19;7395016;19;20019;-68
2023/07/14 09:00:06;;;;;;;2.50;1.70;;;;;;;21.38;48.18;101181.19;7397080;19;20082;-68
2023/07/14 09:02:40;;;;;;;2.67;1.73;;;;;;;21.44;47.46;101186.16;7397318;19;20018;-68
2023/07/14 09:05:17;;;;;;;2.05;1.50;;;;;;;21.48;47.47;101190.38;7395020;19;20025;-67
2023/07/14 09:07:45;;;;;;;2.28;1.60;;;;;;;21.53;47.37;101184.75;7397509;19;20014;-68
2023/07/14 09:10:15;;;;;;;3.97;1.80;;;;;;;21.63;47.41;101180.59;7397261;19;20046;-69
2023/07/14 09:13:02;;;;;;;2.75;1.67;;;;;;;21.73;45.97;101186.22;7396791;19;20006;-68
2023/07/14 09:15:34;;;;;;;2.72;1.80;;;;;;;21.80;46.39;101174.22;7395235;19;20070;-70
2023/07/14 09:18:18;;;;;;;5.38;1.70;;;;;;;21.88;45.91;101174.59;7396993;19;20357;-69
2023/07/14 09:21:04;;;;;;;3.35;1.80;;;;;;;21.95;45.98;101169.72;7395187;19;20078;-69
2023/07/14 09:23:54;;;;;;;4.00;1.90;;;;;;;22.01;45.58;101171.16;7396299;19;20019;-68
2023/07/14 09:26:29;;;;;;;3.20;1.65;;;;;;;22.05;45.48;101170.88;7396192;19;20425;-68
2023/07/14 09:28:59;;;;;;;2.22;1.55;;;;;;;22.11;45.16;101170.44;7396062;19;20545;-69
2023/07/14 09:31:41;;;;;;;2.78;1.40;;;;;;;22.19;44.77;101170.00;7396409;19;20029;-69
2023/07/14 09:34:17;;;;;;;4.90;1.83;;;;;;;22.28;43.56;101166.72;7394496;19;20104;-68
2023/07/14 09:36:46;;;;;;;4.63;1.55;;;;;;;22.37;44.00;101161.75;7396164;19;20361;-68
2023/07/14 09:39:21;;;;;;;3.47;1.80;;;;;;;22.45;43.50;101168.31;7396357;19;20078;-69
2023/07/14 09:41:52;;;;;;;2.35;1.80;;;;;;;22.54;43.78;101161.50;7396526;19;20031;-68
2023/07/14 09:44:29;;;;;;;5.40;1.80;;;;;;;22.61;43.01;101157.47;7394168;19;20481;-67
2023/07/14 09:47:02;;;;;;;2.60;1.85;;;;;;;22.68;42.56;101163.25;7395798;19;20015;-67
2023/07/14 09:49:36;;;;;;;3.90;1.70;;;;;;;22.76;43.11;101160.06;7395860;19;20011;-68
2023/07/14 09:52:13;;;;;;;3.45;1.30;;;;;;;22.83;42.36;101156.03;7396188;19;20015;-69
2023/07/14 09:54:57;;;;;;;3.47;2.10;;;;;;;22.92;42.34;101150.09;7394120;19;20014;-69
2023/07/14 09:57:27;;;;;;;;;;;;;;;23.02;42.21;101149.44;7396944;19;20022;-68
2023/07/14 09:59:57;;;;;;;;;;;;;;;23.11;42.31;101146.13;7397334;19;19986;-67
2023/07/14 10:02:32;;;;;;;;;;;;;;;23.19;42.78;101149.19;7394870;19;19982;-67
2023/07/14 10:05:03;;;;;;;;;;;;;;;23.31;42.42;101141.28;7394118;19;19915;-68
2023/07/14 10:07:37;;;;;;;;;;;;;;;23.41;41.78;101145.88;7394766;19;19958;-68
2023/07/14 10:10:09;;;;;;;;;;;;;;;23.51;40.48;101148.75;7395317;19;19919;-68
2023/07/14 10:12:40;;;;;;;;;;;;;;;23.64;42.22;101140.72;7395626;19;19918;-71
2023/07/14 10:15:23;;;;;;;;;;;;;;;23.74;42.40;101135.56;7394605;19;19974;-69
2023/07/14 10:17:56;;;;;;;;;;;;;;;23.84;42.08;101130.41;7395606;19;19915;-69
2023/07/14 10:20:32;;;;;;;;;;;;;;;23.93;42.57;101119.06;7392684;19;20334;-69
2023/07/14 10:23:15;;;;;;;;;;;;;;;24.03;41.39;101124.63;7395584;19;19918;-67
2023/07/14 10:25:50;;;;;;;;;;;;;;;24.16;42.64;101122.75;7391942;19;19923;-69
2023/07/14 10:28:22;;;;;;;;;;;;;;;24.24;40.68;101115.00;7395597;19;19986;-69
2023/07/14 10:30:56;;;;;;;;;;;;;;;24.29;40.30;101109.31;7395754;19;19919;-69
2023/07/14 10:33:28;;;;;;;;;;;;;;;24.34;41.83;101099.09;7394354;19;19982;-69
2023/07/14 10:36:01;;;;;;;;;;;;;;;24.43;41.44;101104.72;7395631;19;19929;-67
2023/07/14 10:38:32;;;;;;;;;;;;;;;24.51;41.12;101107.69;7393454;19;19978;-69
2023/07/14 10:41:02;;;;;;;;;;;;;;;24.62;40.85;101104.19;7395347;19;19914;-69
2023/07/14 10:43:34;;;;;;;;;;;;;;;24.72;42.16;101099.88;7393594;19;19950;-67
2023/07/14 10:46:06;;;;;;;;;;;;;;;24.81;40.40;101103.69;7395541;19;19927;-67
2023/07/14 10:48:40;;;;;;;;;;;;;;;24.84;41.58;101098.91;7395059;19;19942;-68
2023/07/14 10:51:13;;;;;;;;;;;;;;;24.88;39.46;101094.19;7394748;19;20347;-68
2023/07/14 10:53:45;;;;;;;;;;;;;;;24.93;42.18;101097.38;7395844;19;19919;-69
2023/07/14 10:56:18;;;;;;;;;;;;;;;24.99;37.33;101093.38;7395834;19;19914;-70
2023/07/14 10:58:49;;;;;;;;;;;;;;;25.03;37.97;101097.50;7394482;19;19994;-68
2023/07/14 11:01:21;;;;;;;;;;;;;;;25.03;36.63;101082.28;7394299;19;19925;-67
2023/07/14 11:03:56;;;;;;;;;;;;;;;25.06;36.38;101081.19;7392086;19;19974;-69
2023/07/14 11:06:27;;;;;;;;;;;;;;;25.12;38.92;101077.16;7394490;19;19923;-70
2023/07/14 11:08:58;;;;;;;;;;;;;;;25.23;35.86;101076.31;7392491;19;20264;-69
2023/07/14 11:11:30;;;;;;;;;;;;;;;25.36;38.42;101069.91;7394436;19;19926;-67
2023/07/14 11:14:05;;;;;;;;;;;;;;;25.50;35.09;101065.22;7392838;19;19982;-69
2023/07/14 11:16:36;;;;;;;;;;;;;;;25.63;37.62;101067.78;7394775;19;19987;-67
2023/07/14 11:19:08;;;;;;;;;;;;;;;25.78;38.40;101069.25;7394556;19;20381;-68
2023/07/14 11:21:39;;;;;;;;;;;;;;;25.95;37.48;101056.25;7392270;19;19918;-69
2023/07/14 11:24:18;;;;;;;;;;;;;;;26.11;36.40;101053.19;7392441;19;20343;-67
2023/07/14 11:26:52;;;;;;;;;;;;;;;26.27;35.96;101055.44;7394406;19;19929;-69
2023/07/14 11:29:22;;;;;;;;;;;;;;;26.43;32.94;101038.88;7394411;19;19919;-67
2023/07/14 11:31:53;;;;;;;;;;;;;;;26.61;35.09;101044.53;7393431;19;19927;-67
2023/07/14 11:34:28;;;;;;;;;;;;;;;26.78;31.98;101043.09;7392057;19;20307;-68
2023/07/14 11:37:00;;;;;;;;;;;;;;;26.90;34.58;101038.53;7396339;19;19983;-68
2023/07/14 11:39:38;;;;;;;;;;;;;;;26.99;33.13;101040.41;7400895;19;19926;-70
2023/07/14 11:42:06;;;;;;;;;;;;;;;27.08;33.33;101034.25;7400933;19;19918;-68
2023/07/14 11:44:35;;;;;;;;;;;;;;;27.20;33.42;101016.13;7398361;19;19939;-68
2023/07/14 11:47:03;;;;;;;;;;;;;;;27.29;31.79;101017.16;7397920;19;19999;-69
2023/07/14 11:49:38;;;;;;;;;;;;;;;27.41;34.50;101023.31;7399996;19;19982;-68
2023/07/14 11:52:12;;;;;;;;;;;;;;;27.53;34.55;101026.78;7399926;19;20329;-68
2023/07/14 11:54:44;;;;;;;;;;;;;;;27.64;32.03;101019.44;7398072;19;19978;-68
2023/07/14 11:57:18;;;;;;;;;;;;;;;27.67;31.13;101026.38;7400261;19;19982;-68